Time;durP1;ratioP1;P1;durP2;ratioP2;P2;SDS_P1;SDS_P2;PMS_P1;PMS_P2;Temp;Humidity;BMP_temperature;BMP_pressure;BME280_temperature;BME280_humidity;BME280_pressure;Samples;Min_cycle;Max_cycle;Signal;HPM_P1;HPM_P2
2021/12/31 00:00:34;;;;;;;10.52;7.05;;;3.20;84.40;;;1.86;80.28;96779.84;3993151;34;20698;-84
2021/12/31 00:03:00;;;;;;;9.85;6.63;;;3.20;84.40;;;1.87;80.26;96776.94;3972730;34;20084;-84
2021/12/31 00:05:27;;;;;;;12.43;6.63;;;3.20;84.40;;;1.87;80.05;96773.41;3992545;34;20281;-84
2021/12/31 00:07:53;;;;;;;9.93;6.60;;;3.20;84.40;;;1.87;80.05;96771.53;3992687;34;20281;-84
2021/12/31 00:10:19;;;;;;;10.73;6.50;;;3.20;84.40;;;1.86;80.29;96769.84;3970571;34;20568;-84
2021/12/31 00:12:46;;;;;;;10.77;7.03;;;3.20;84.40;;;1.86;79.82;96769.84;3970719;34;20295;-84
2021/12/31 00:15:12;;;;;;;9.45;6.60;;;3.20;84.40;;;1.87;80.35;96778.81;3970090;34;20009;-84
2021/12/31 00:17:39;;;;;;;9.70;6.28;;;3.20;84.40;;;1.88;79.81;96788.53;3993463;34;20289;-84
2021/12/31 00:20:14;;;;;;;10.45;6.47;;;3.20;84.40;;;1.89;79.88;96801.00;4015453;34;20373;-84
2021/12/31 00:25:07;;;;;;;9.32;6.32;;;3.20;84.30;;;1.88;80.02;96820.94;4038046;34;20808;-84
2021/12/31 00:27:34;;;;;;;9.85;6.53;;;3.20;84.20;;;1.89;79.80;96825.31;3993775;34;20320;-84
2021/12/31 00:30:00;;;;;;;8.05;6.18;;;3.20;84.30;;;1.89;79.84;96817.22;3972819;34;20013;-84
2021/12/31 00:32:27;;;;;;;9.88;6.05;;;3.20;84.30;;;1.89;80.16;96815.38;3972268;34;20299;-84
2021/12/31 00:34:53;;;;;;;10.00;6.65;;;3.20;84.30;;;1.89;80.35;96796.47;3969960;34;20110;-84
2021/12/31 00:37:34;;;;;;;10.77;6.97;;;3.20;84.30;;;1.89;79.89;96792.91;3992242;34;20052;-84
2021/12/31 00:40:02;;;;;;;11.20;6.80;;;3.20;84.30;;;1.90;79.94;96789.19;4012896;34;20300;-84
2021/12/31 00:42:28;;;;;;;10.50;6.35;;;3.20;84.30;;;1.89;80.05;96792.91;3970723;34;20005;-84
2021/12/31 00:44:55;;;;;;;9.82;6.80;;;3.20;84.30;;;1.88;80.15;96793.94;3983414;34;20313;-84
2021/12/31 00:47:21;;;;;;;9.98;6.93;;;3.20;84.40;;;1.86;80.17;96785.25;4014552;34;20281;-84
2021/12/31 00:49:47;;;;;;;8.27;6.10;;;3.20;84.30;;;1.89;80.42;96782.13;3994151;34;20313;-85
2021/12/31 00:52:14;;;;;;;10.25;6.30;;;3.20;84.30;;;1.90;80.25;96789.19;3972951;34;20280;-84
2021/12/31 00:54:40;;;;;;;10.93;6.65;;;3.20;84.30;;;1.88;80.03;96788.53;3977039;34;20031;-83
2021/12/31 00:57:07;;;;;;;10.25;6.28;;;3.20;84.30;;;1.89;80.00;96801.84;3971597;34;20079;-83
2021/12/31 00:59:34;;;;;;;9.40;6.53;;;3.20;84.30;;;1.87;80.14;96792.31;4014464;34;20503;-84
2021/12/31 01:02:04;;;;;;;9.35;6.38;;;3.20;84.30;;;1.90;80.64;96778.38;4014357;34;20620;-84
2021/12/31 01:04:33;;;;;;;9.02;6.07;;;3.20;84.30;;;1.89;79.82;96779.41;4015071;34;20334;-84
2021/12/31 01:07:01;;;;;;;9.98;6.80;;;3.20;84.40;;;1.87;79.96;96786.91;3994824;34;20374;-84
2021/12/31 01:09:29;;;;;;;8.93;6.25;;;3.20;84.30;;;1.88;79.66;96783.16;4013387;34;19997;-83
2021/12/31 01:11:56;;;;;;;9.55;6.93;;;3.20;84.30;;;1.88;79.95;96778.59;3992017;34;20013;-84
2021/12/31 01:16:57;;;;;;;9.27;6.82;;;3.20;84.30;;;1.88;80.00;96780.44;3998194;34;20360;-83
2021/12/31 01:21:54;;;;;;;9.75;5.95;;;3.20;84.40;;;1.90;80.18;96791.88;3972878;34;20009;-84
2021/12/31 01:24:23;;;;;;;9.80;6.53;;;3.20;84.20;;;1.90;79.78;96799.97;3971369;34;19986;-84
2021/12/31 01:26:50;;;;;;;8.43;6.07;;;3.20;84.30;;;1.89;79.79;96801.00;4014592;34;20773;-84
2021/12/31 01:29:16;;;;;;;8.98;6.53;;;3.20;84.30;;;1.88;80.30;96783.16;3971823;34;20289;-84
2021/12/31 01:31:42;;;;;;;8.40;5.75;;;3.20;84.30;;;1.88;79.90;96772.34;3973551;34;20028;-84
2021/12/31 01:34:08;;;;;;;8.93;5.78;;;3.20;84.30;;;1.90;79.85;96768.44;4015257;34;20002;-84
2021/12/31 01:36:35;;;;;;;9.20;6.43;;;3.20;84.30;;;1.89;80.19;96763.22;3993835;34;20443;-83
2021/12/31 01:39:01;;;;;;;9.30;6.18;;;3.20;84.30;;;1.88;79.80;96769.66;3993744;34;19985;-84
2021/12/31 01:41:27;;;;;;;8.18;5.93;;;3.20;84.30;;;1.88;80.13;96756.16;3994203;34;20005;-84
2021/12/31 01:43:54;;;;;;;9.32;6.32;;;3.20;84.40;;;1.88;79.92;96761.53;3996226;34;20327;-84
2021/12/31 01:46:20;;;;;;;9.25;6.20;;;3.20;84.30;;;1.88;79.86;96756.16;4015962;34;20002;-84
2021/12/31 01:51:25;;;;;;;8.40;6.20;;;3.20;84.30;;;1.88;79.59;96772.34;4003113;34;20384;-84
2021/12/31 01:53:52;;;;;;;7.85;5.80;;;3.20;84.30;;;1.89;79.83;96779.41;3974865;34;20334;-84
2021/12/31 01:56:19;;;;;;;7.97;5.40;;;3.20;84.20;;;1.89;80.41;96769.47;3961567;34;20013;-84
2021/12/31 01:58:46;;;;;;;8.57;5.70;;;3.20;84.30;;;1.87;79.78;96779.63;3977025;34;19997;-83
2021/12/31 02:01:12;;;;;;;8.32;5.60;;;3.20;84.30;;;1.89;80.01;96782.13;4016030;34;20013;-84
2021/12/31 02:03:38;;;;;;;9.27;6.22;;;3.20;84.30;;;1.89;80.39;96784.81;3993387;34;20013;-84
2021/12/31 02:06:05;;;;;;;8.15;5.50;;;3.20;84.30;;;1.88;80.22;96788.53;3969054;34;20696;-84
2021/12/31 02:08:32;;;;;;;7.75;5.43;;;3.20;84.30;;;1.87;79.83;96779.63;3968944;34;20017;-83
2021/12/31 02:10:58;;;;;;;9.10;6.32;;;3.20;84.30;;;1.88;80.18;96764.25;4012696;34;20316;-84
2021/12/31 02:13:25;;;;;;;8.52;6.03;;;3.20;84.30;;;1.88;80.11;96756.16;3992325;34;20009;-84
2021/12/31 02:15:52;;;;;;;7.50;5.40;;;3.20;84.40;;;1.87;80.24;96757.22;3971416;34;20418;-85
2021/12/31 02:18:19;;;;;;;8.32;5.45;;;3.20;84.30;;;1.87;80.11;96749.94;3992575;34;20250;-84
2021/12/31 02:20:47;;;;;;;9.80;5.82;;;3.20;84.40;;;1.87;80.50;96755.31;4035415;34;20528;-84
2021/12/31 02:23:32;;;;;;;7.95;5.45;;;3.20;84.40;;;1.89;80.43;96769.47;4013220;34;20299;-84
2021/12/31 02:25:58;;;;;;;7.95;6.10;;;3.20;84.40;;;1.89;80.15;96769.47;4017677;34;20005;-84
2021/12/31 02:28:24;;;;;;;8.40;6.28;;;3.20;84.40;;;1.89;80.17;96768.63;4013236;34;20001;-84
2021/12/31 02:30:52;;;;;;;8.23;5.15;;;3.20;84.30;;;1.88;80.01;96759.69;4013157;34;20335;-83
2021/12/31 02:33:18;;;;;;;8.25;5.70;;;3.20;84.30;;;1.91;79.92;96769.25;4013044;34;20072;-84
2021/12/31 02:35:45;;;;;;;8.93;5.88;;;3.20;84.30;;;1.89;80.12;96764.06;3990892;34;20009;-84
2021/12/31 02:38:11;;;;;;;9.45;6.00;;;3.20;84.30;;;1.88;80.41;96764.25;3994264;34;20291;-83
2021/12/31 02:40:37;;;;;;;7.80;5.63;;;3.20;84.30;;;1.90;80.23;96764.88;4015112;34;20004;-84
2021/12/31 02:43:04;;;;;;;8.00;5.43;;;3.20;84.30;;;1.90;79.97;96767.59;4015204;34;20297;-83
2021/12/31 02:45:35;;;;;;;7.78;5.25;;;3.20;84.30;;;1.89;79.99;96776.72;3993404;34;20350;-83
2021/12/31 02:48:03;;;;;;;7.50;5.00;;;3.20;84.30;;;1.90;80.19;96778.38;3990164;34;19997;-83
2021/12/31 02:50:34;;;;;;;8.68;6.05;;;3.20;84.40;;;1.91;80.13;96755.75;3948149;34;20210;-83
2021/12/31 02:53:06;;;;;;;9.00;5.90;;;3.20;84.30;;;1.90;80.14;96740.59;3965943;34;20040;-83
2021/12/31 02:55:35;;;;;;;8.45;5.32;;;3.20;84.30;;;1.89;79.83;96738.91;3965882;34;20311;-84
2021/12/31 02:58:03;;;;;;;8.18;5.47;;;3.20;84.30;;;1.90;80.04;96745.97;4006876;34;20305;-83
2021/12/31 03:00:31;;;;;;;7.57;5.30;;;3.20;84.30;;;1.90;80.05;96754.09;4009651;34;20331;-84
2021/12/31 03:02:59;;;;;;;7.05;5.18;;;3.20;84.40;;;1.90;80.29;96744.13;3984540;34;20043;-83
2021/12/31 03:05:28;;;;;;;8.52;5.70;;;3.20;84.40;;;1.90;79.90;96756.78;4008790;34;20060;-84
2021/12/31 03:07:55;;;;;;;7.28;5.40;;;3.20;84.40;;;1.90;79.97;96751.38;4018751;34;20364;-83
2021/12/31 03:10:22;;;;;;;8.75;5.47;;;3.20;84.40;;;1.90;79.93;96752.22;4013369;34;19911;-83
2021/12/31 03:12:50;;;;;;;7.47;5.50;;;3.20;84.30;;;1.90;80.05;96743.28;4011351;34;20080;-83
2021/12/31 03:15:17;;;;;;;8.05;5.00;;;3.20;84.30;;;1.90;79.87;96737.88;4014148;34;20316;-83
2021/12/31 03:17:43;;;;;;;8.57;5.63;;;3.20;84.30;;;1.88;80.03;96731.84;3982201;34;20084;-84
2021/12/31 03:20:15;;;;;;;8.10;5.63;;;3.20;84.40;;;1.90;79.87;96737.88;3994611;34;20291;-84
2021/12/31 03:22:43;;;;;;;7.93;5.43;;;3.20;84.40;;;1.89;80.06;96737.06;4015970;34;20305;-84
2021/12/31 03:25:10;;;;;;;7.95;5.15;;;3.20;84.40;;;1.89;80.30;96734.38;3951058;34;20292;-84
2021/12/31 03:27:37;;;;;;;6.68;4.53;;;3.20;84.40;;;1.90;80.14;96727.94;3950642;34;20001;-83
2021/12/31 03:30:05;;;;;;;8.55;5.95;;;3.20;84.40;;;1.90;80.16;96725.22;3972460;34;20004;-83
2021/12/31 03:32:31;;;;;;;7.50;5.53;;;3.20;84.40;;;1.88;79.91;96721.06;4019440;34;20076;-84
2021/12/31 03:34:57;;;;;;;7.50;4.88;;;3.20;84.30;;;1.89;79.99;96720.03;4013889;34;20011;-84
2021/12/31 03:37:24;;;;;;;9.00;5.50;;;3.20;84.40;;;1.88;80.07;96721.06;3949820;34;20289;-84
2021/12/31 03:39:50;;;;;;;8.02;4.97;;;3.20;84.40;;;1.90;79.90;96721.69;3991826;34;20375;-83
2021/12/31 03:42:18;;;;;;;7.95;5.45;;;3.20;84.40;;;1.89;79.86;96720.03;3993766;34;20043;-84
2021/12/31 03:44:44;;;;;;;6.85;4.88;;;3.20;84.40;;;1.90;80.00;96727.09;3971713;34;20005;-83
2021/12/31 03:47:10;;;;;;;8.18;5.40;;;3.20;84.40;;;1.88;80.05;96729.16;4014267;34;20008;-83
2021/12/31 03:49:37;;;;;;;6.90;5.10;;;3.20;84.40;;;1.88;80.00;96731.84;4014508;34;20349;-83
2021/12/31 03:52:03;;;;;;;7.45;5.07;;;3.20;84.40;;;1.89;80.04;96728.97;3993088;34;20633;-83
2021/12/31 03:54:30;;;;;;;7.28;4.80;;;3.20;84.30;;;1.90;79.94;96732.47;3969900;34;20335;-84
2021/12/31 03:56:56;;;;;;;7.10;5.18;;;3.20;84.30;;;1.90;79.91;96724.38;4012826;34;20303;-83
2021/12/31 03:59:22;;;;;;;7.25;5.05;;;3.20;84.30;;;1.90;80.27;96724.38;3990622;34;20009;-83
2021/12/31 04:01:48;;;;;;;8.38;5.38;;;3.20;84.40;;;1.90;79.91;96721.69;3993239;34;20305;-83
2021/12/31 04:04:15;;;;;;;6.70;4.43;;;3.20;84.30;;;1.90;79.86;96722.53;3992956;34;20301;-83
2021/12/31 04:06:41;;;;;;;8.07;5.57;;;3.20;84.30;;;1.90;80.25;96722.53;3992980;34;20005;-83
2021/12/31 04:09:08;;;;;;;6.57;4.93;;;3.20;84.30;;;1.90;80.27;96733.34;3994790;34;20365;-83
2021/12/31 04:11:34;;;;;;;6.70;4.47;;;3.20;84.30;;;1.90;79.84;96730.63;3994142;34;20001;-84
2021/12/31 04:14:00;;;;;;;5.80;4.20;;;3.20;84.40;;;1.91;79.67;96728.75;3993139;34;20084;-83
2021/12/31 04:16:26;;;;;;;7.28;4.97;;;3.20;84.30;;;1.91;80.28;96734.16;3992317;34;20323;-84
2021/12/31 04:18:53;;;;;;;6.88;4.85;;;3.20;84.30;;;1.89;80.28;96730.81;3971645;34;20293;-84
2021/12/31 04:21:21;;;;;;;7.97;5.45;;;3.20;84.40;;;1.92;80.35;96730.41;3993119;34;19997;-84
2021/12/31 04:23:50;;;;;;;7.40;5.05;;;3.20;84.30;;;1.92;79.94;96735.81;3992641;34;20088;-83
2021/12/31 04:26:17;;;;;;;8.23;5.68;;;3.20;84.30;;;1.90;80.22;96738.72;3972870;34;20242;-84
2021/12/31 04:28:43;;;;;;;8.82;5.20;;;3.20;84.30;;;1.91;79.84;96732.31;3979824;34;20013;-83
2021/12/31 04:31:10;;;;;;;8.38;4.90;;;3.20;84.30;;;1.91;79.93;96732.31;3993473;34;20375;-83
2021/12/31 04:33:36;;;;;;;7.50;4.65;;;3.20;84.30;;;1.91;79.97;96734.16;3972450;34;20097;-83
2021/12/31 04:36:03;;;;;;;7.20;4.95;;;3.20;84.30;;;1.90;79.93;96735.19;3992755;34;20005;-84
2021/12/31 04:38:29;;;;;;;8.00;5.05;;;3.20;84.30;;;1.90;80.31;96733.34;3995730;34;20688;-83
2021/12/31 04:40:55;;;;;;;7.95;5.10;;;3.20;84.30;;;1.90;80.36;96738.72;4014879;34;20080;-83
2021/12/31 04:43:21;;;;;;;7.47;5.18;;;3.20;84.20;;;1.91;80.04;96728.75;3972471;34;20216;-84
2021/12/31 04:45:48;;;;;;;7.90;4.95;;;3.20;84.30;;;1.90;80.12;96725.22;3996133;34;20313;-83
2021/12/31 04:48:14;;;;;;;7.28;4.82;;;3.20;84.30;;;1.90;80.24;96732.47;3973380;34;20346;-83
2021/12/31 04:50:40;;;;;;;7.68;5.35;;;3.20;84.30;;;1.91;79.92;96723.34;4020208;34;20092;-83
2021/12/31 04:53:07;;;;;;;8.65;5.00;;;3.20;84.30;;;1.89;80.42;96725.41;3995037;34;20723;-83
2021/12/31 04:55:33;;;;;;;7.55;4.95;;;3.20;84.30;;;1.91;80.38;96734.16;3995105;34;20316;-83
2021/12/31 04:58:00;;;;;;;8.18;4.82;;;3.30;84.40;;;1.90;80.14;96722.53;4018054;34;20299;-83
2021/12/31 05:00:26;;;;;;;7.57;5.00;;;3.20;84.30;;;1.91;80.11;96728.75;3994786;34;20153;-84
2021/12/31 05:02:52;;;;;;;7.13;4.80;;;3.20;84.30;;;1.90;80.17;96719.84;4014114;34;20009;-83
2021/12/31 05:05:19;;;;;;;8.40;5.03;;;3.20;84.30;;;1.91;80.27;96717.94;4013137;34;20314;-83
2021/12/31 05:07:45;;;;;;;7.20;4.80;;;3.20;85.10;;;1.90;80.31;96722.53;4013498;34;20285;-83
2021/12/31 05:10:12;;;;;;;7.63;5.18;;;3.20;84.30;;;1.91;80.50;96724.19;4009596;34;20005;-83
2021/12/31 05:12:38;;;;;;;8.70;4.90;;;3.20;84.30;;;1.90;79.85;96718.97;3974412;34;20322;-84
2021/12/31 05:15:08;;;;;;;6.90;4.85;;;3.20;84.30;;;1.90;80.17;96719.84;3972069;34;20297;-83
2021/12/31 05:17:35;;;;;;;7.63;5.10;;;3.20;84.30;;;1.91;79.94;96718.81;3971970;34;19994;-84
2021/12/31 05:20:02;;;;;;;8.38;5.72;;;3.20;84.30;;;1.89;79.71;96718.16;3970581;34;20080;-84
2021/12/31 05:22:28;;;;;;;8.40;5.15;;;3.20;84.30;;;1.90;80.09;96719.84;3969644;34;20027;-84
2021/12/31 05:24:55;;;;;;;7.43;4.85;;;3.20;84.20;;;1.90;79.89;96713.59;3991462;34;20751;-83
2021/12/31 05:27:21;;;;;;;7.88;4.85;;;3.20;84.30;;;1.89;80.03;96714.63;3970399;34;20280;-83
2021/12/31 05:29:47;;;;;;;9.05;5.50;;;3.20;84.30;;;1.90;80.41;96716.28;3992519;34;20256;-85
2021/12/31 05:32:13;;;;;;;8.75;5.47;;;3.20;84.20;;;1.89;80.56;96710.06;3970745;34;20052;-84
2021/12/31 05:34:40;;;;;;;7.15;5.18;;;3.20;84.20;;;1.92;79.82;96706.13;4012748;34;20308;-84
2021/12/31 05:37:06;;;;;;;6.97;4.65;;;3.20;84.30;;;1.91;80.10;96721.50;3991044;34;20282;-83
2021/12/31 05:39:32;;;;;;;6.95;4.72;;;3.20;84.30;;;1.90;79.87;96709.03;3968414;34;20032;-84
2021/12/31 05:41:58;;;;;;;8.32;5.30;;;3.20;84.30;;;1.90;80.17;96710.88;3989685;34;20311;-84
2021/12/31 05:44:25;;;;;;;8.52;5.00;;;3.20;84.30;;;1.90;80.16;96714.44;3984454;34;20317;-84
2021/12/31 05:46:53;;;;;;;6.28;4.65;;;3.20;84.30;;;1.90;80.26;96716.28;4004294;34;20043;-84
2021/12/31 05:49:20;;;;;;;7.20;4.95;;;3.20;84.30;;;1.92;80.34;96714.22;3962386;34;20284;-84
2021/12/31 05:51:46;;;;;;;7.90;5.10;;;3.20;84.30;;;1.90;80.16;96722.53;3958397;34;20221;-84
2021/12/31 05:54:12;;;;;;;9.52;5.60;;;3.20;84.30;;;1.91;80.07;96726.91;3976967;34;20564;-84
2021/12/31 05:56:39;;;;;;;9.18;5.78;;;3.20;84.30;;;1.91;79.96;96718.81;3978165;34;20288;-83
2021/12/31 05:59:05;;;;;;;9.55;5.72;;;3.20;84.30;;;1.90;80.21;96716.28;3977640;34;20005;-83
2021/12/31 06:01:31;;;;;;;9.55;5.68;;;3.20;84.30;;;1.91;80.29;96713.41;3937662;34;20004;-84
2021/12/31 06:03:58;;;;;;;8.30;5.63;;;3.20;84.30;;;1.92;80.20;96714.22;4002800;34;20326;-83
2021/12/31 06:06:24;;;;;;;8.50;6.03;;;3.30;84.40;;;1.91;80.03;96710.69;3980606;34;20289;-84
2021/12/31 06:08:50;;;;;;;8.90;5.00;;;3.20;84.30;;;1.91;80.21;96715.25;3980678;34;20084;-84
2021/12/31 06:11:16;;;;;;;8.23;5.55;;;3.20;84.20;;;1.91;80.07;96715.25;3959312;34;20325;-83
2021/12/31 06:13:44;;;;;;;7.57;4.95;;;3.20;84.30;;;1.91;80.14;96708.00;3959005;34;20356;-83
2021/12/31 06:16:11;;;;;;;8.70;5.47;;;3.20;84.30;;;1.91;80.15;96696.34;3958680;34;20302;-83
2021/12/31 06:18:39;;;;;;;8.70;5.25;;;3.20;84.30;;;1.91;80.08;96699.06;3958522;34;20403;-83
2021/12/31 06:21:06;;;;;;;8.65;5.45;;;3.20;84.30;;;1.92;79.79;96704.28;3986707;34;20301;-83
2021/12/31 06:23:32;;;;;;;9.27;5.18;;;3.20;84.30;;;1.92;80.21;96703.41;3980443;34;20013;-83
2021/12/31 06:25:59;;;;;;;8.07;5.38;;;3.20;84.30;;;1.91;79.94;96691.81;3958538;34;20287;-84
2021/12/31 06:28:25;;;;;;;8.65;5.45;;;3.20;84.30;;;1.93;80.23;96700.53;4001217;34;20302;-84
2021/12/31 06:30:51;;;;;;;8.98;5.32;;;3.20;84.30;;;1.92;79.95;96692.63;4003769;34;20009;-83
2021/12/31 06:33:17;;;;;;;7.82;5.30;;;3.20;84.30;;;1.92;80.09;96696.16;3961791;34;20402;-84
2021/12/31 06:35:44;;;;;;;9.32;6.20;;;3.30;84.40;;;1.94;79.71;96695.94;3963109;34;20282;-83
2021/12/31 06:38:11;;;;;;;9.07;5.55;;;3.30;84.40;;;1.93;80.08;96700.53;4010735;34;20005;-83
2021/12/31 06:40:38;;;;;;;8.05;5.78;;;3.30;84.30;;;1.95;80.23;96697.63;4005486;34;20008;-84
2021/12/31 06:43:05;;;;;;;9.40;5.75;;;3.30;84.30;;;1.95;79.71;96698.44;3983553;34;20382;-83
2021/12/31 06:45:31;;;;;;;8.18;5.35;;;3.30;84.30;;;1.96;79.90;96683.09;3961986;34;20304;-84
2021/12/31 06:47:57;;;;;;;8.52;5.60;;;3.30;85.00;;;1.97;80.00;96695.56;3967498;34;20005;-82
2021/12/31 06:50:24;;;;;;;7.13;4.85;;;3.30;84.20;;;1.97;79.60;96690.97;4011110;34;20336;-84
2021/12/31 06:52:50;;;;;;;8.90;5.75;;;3.30;84.10;;;1.96;79.85;96683.91;3985222;34;20536;-83
2021/12/31 06:55:16;;;;;;;8.38;5.85;;;3.30;84.10;;;1.97;79.66;96699.06;3965991;34;20033;-83
2021/12/31 06:57:42;;;;;;;9.18;6.43;;;3.30;84.10;;;1.98;79.77;96703.44;3967654;34;20306;-84
2021/12/31 07:00:09;;;;;;;9.70;6.40;;;3.30;84.00;;;1.97;79.58;96701.78;3967379;34;20284;-83
2021/12/31 07:02:36;;;;;;;8.90;6.32;;;3.30;84.00;;;1.97;79.78;96700.94;4010168;34;20606;-84
2021/12/31 07:05:02;;;;;;;10.73;6.63;;;3.30;84.00;;;1.99;79.66;96709.69;3988360;34;20001;-83
2021/12/31 07:07:28;;;;;;;13.40;7.13;;;3.30;84.00;;;1.99;79.95;96712.38;3967199;34;20292;-83
2021/12/31 07:09:55;;;;;;;23.02;7.78;;;3.30;84.10;;;1.99;79.70;96707.00;3988924;34;20275;-83
2021/12/31 07:12:21;;;;;;;11.35;7.70;;;3.30;84.00;;;2.01;79.84;96707.59;3988376;34;20060;-83
2021/12/31 07:14:47;;;;;;;12.25;8.02;;;3.30;83.90;;;2.00;79.89;96714.06;4008948;34;20001;-83
2021/12/31 07:17:14;;;;;;;17.77;8.65;;;3.30;84.10;;;2.00;79.83;96708.66;4008987;34;20289;-83
2021/12/31 07:19:40;;;;;;;18.00;9.80;;;3.30;83.90;;;1.99;79.39;96709.69;4009749;34;20064;-83
2021/12/31 07:22:06;;;;;;;19.10;10.00;;;3.30;83.80;;;2.00;79.54;96708.66;4009590;34;20017;-83
2021/12/31 07:24:32;;;;;;;16.02;9.52;;;3.30;83.80;;;2.01;79.89;96710.28;3988133;34;20289;-84
2021/12/31 07:26:59;;;;;;;19.83;11.10;;;3.30;83.80;;;1.99;79.76;96707.81;4009547;34;21129;-83
2021/12/31 07:29:25;;;;;;;20.13;11.20;;;3.30;83.90;;;1.99;79.66;96707.81;3946613;34;19989;-83
2021/12/31 07:31:51;;;;;;;15.68;9.55;;;3.30;84.00;;;2.01;79.73;96713.00;3988003;34;20001;-83
2021/12/31 07:34:17;;;;;;;18.45;11.25;;;3.30;84.00;;;2.00;79.88;96705.97;4009049;34;20284;-83
2021/12/31 07:36:44;;;;;;;19.67;10.60;;;3.30;84.00;;;1.99;79.59;96701.59;3994986;34;20644;-83
2021/12/31 07:39:12;;;;;;;21.48;12.70;;;3.30;83.90;;;2.01;79.76;96710.28;4011452;34;20286;-83
2021/12/31 07:41:39;;;;;;;20.05;12.05;;;3.40;83.90;;;2.00;79.83;96711.34;3969839;34;20290;-83
2021/12/31 07:44:06;;;;;;;18.38;11.18;;;3.30;83.80;;;2.01;79.49;96718.41;3989834;34;20280;-83
2021/12/31 07:46:33;;;;;;;19.70;11.23;;;3.30;83.80;;;2.02;79.62;96722.75;3989805;34;20229;-83
2021/12/31 07:49:00;;;;;;;18.42;11.18;;;3.30;83.80;;;2.02;79.54;96730.88;3969971;34;20268;-83
2021/12/31 07:51:26;;;;;;;20.52;11.57;;;3.30;83.80;;;2.03;79.73;96729.00;3969732;34;20111;-83
2021/12/31 07:53:52;;;;;;;20.08;11.25;;;3.30;83.80;;;2.02;79.37;96728.16;3969840;34;20349;-83
2021/12/31 07:56:19;;;;;;;20.65;12.10;;;3.40;83.80;;;2.03;79.71;96729.81;3990621;34;20591;-82
2021/12/31 07:58:47;;;;;;;19.10;11.65;;;3.40;83.70;;;2.03;79.44;96727.13;3990557;34;20646;-84
2021/12/31 08:01:13;;;;;;;19.92;11.63;;;3.30;83.70;;;2.03;79.43;96735.22;3989150;34;19992;-83
2021/12/31 08:03:39;;;;;;;21.02;11.85;;;3.30;83.60;;;2.03;79.97;96740.63;3967814;34;20209;-83
2021/12/31 08:06:06;;;;;;;21.17;11.93;;;3.40;83.70;;;2.04;79.58;96745.00;3967626;34;20367;-83
2021/12/31 08:08:32;;;;;;;23.83;13.00;;;3.40;83.60;;;2.04;79.35;96734.19;3988796;34;20004;-84
2021/12/31 08:10:58;;;;;;;20.13;11.30;;;3.30;83.70;;;2.05;79.21;96745.84;3989648;34;20005;-83
2021/12/31 08:13:25;;;;;;;23.23;13.10;;;3.40;83.70;;;2.03;79.32;96740.63;3989077;34;20356;-83
2021/12/31 08:15:51;;;;;;;20.95;12.18;;;3.40;83.70;;;2.04;79.75;96734.19;3988775;34;20080;-83
2021/12/31 08:18:18;;;;;;;19.83;12.57;;;3.30;83.70;;;2.04;79.79;96738.78;3990675;34;20292;-83
2021/12/31 08:20:44;;;;;;;21.60;12.88;;;3.40;83.80;;;2.03;79.35;96740.63;3991325;34;19998;-84
2021/12/31 08:23:12;;;;;;;21.83;13.05;;;3.30;83.70;;;2.03;79.62;96732.53;4006062;34;20316;-83
2021/12/31 08:25:39;;;;;;;20.90;12.85;;;3.30;83.80;;;2.04;79.85;96728.78;3991023;34;20086;-83
2021/12/31 08:28:05;;;;;;;22.10;13.88;;;3.30;83.70;;;2.05;80.03;96724.25;4012746;34;20008;-84
2021/12/31 08:30:32;;;;;;;23.52;12.70;;;3.30;83.80;;;2.04;79.49;96728.78;3991694;34;20178;-83
2021/12/31 08:32:58;;;;;;;22.42;12.38;;;3.30;83.80;;;2.03;79.67;96716.31;3952037;34;19997;-83
2021/12/31 08:35:24;;;;;;;20.30;12.52;;;3.40;83.70;;;2.04;79.67;96728.78;3972097;34;20380;-84
2021/12/31 08:37:51;;;;;;;19.60;11.35;;;3.40;83.70;;;2.04;79.54;96734.19;3987290;34;20323;-84
2021/12/31 08:40:17;;;;;;;19.00;12.20;;;3.40;83.80;;;2.05;79.43;96729.66;3949857;34;20000;-84
2021/12/31 08:42:44;;;;;;;18.48;11.40;;;3.40;83.80;;;2.03;79.46;96727.13;3971327;34;20314;-83
2021/12/31 08:45:10;;;;;;;20.30;11.73;;;3.40;83.80;;;2.05;79.51;96727.75;3978698;34;20005;-83
2021/12/31 08:47:36;;;;;;;21.25;11.45;;;3.40;83.80;;;2.05;79.61;96729.66;3948393;34;20009;-84
2021/12/31 08:50:03;;;;;;;17.67;10.95;;;3.40;83.80;;;2.05;79.70;96737.75;3964534;34;20317;-84
2021/12/31 08:52:29;;;;;;;19.42;11.93;;;3.40;83.80;;;2.04;79.66;96728.78;3940854;34;20321;-84
2021/12/31 08:54:56;;;;;;;18.85;10.43;;;3.40;83.80;;;2.05;79.52;96726.94;3961347;34;20301;-83
2021/12/31 08:57:22;;;;;;;18.00;11.15;;;3.40;83.80;;;2.05;79.55;96729.66;3983005;34;19998;-84
2021/12/31 08:59:48;;;;;;;18.20;10.43;;;3.40;83.80;;;2.05;79.70;96730.47;3962967;34;20009;-83
2021/12/31 09:02:15;;;;;;;18.98;10.63;;;3.40;83.80;;;2.06;79.63;96720.50;3984505;34;20281;-83
2021/12/31 09:04:41;;;;;;;19.80;10.82;;;3.40;83.70;;;2.06;79.53;96725.91;3981648;34;20287;-83
2021/12/31 09:07:07;;;;;;;17.10;9.70;;;3.40;83.70;;;2.06;79.70;96725.91;3961569;34;20064;-83
2021/12/31 09:09:36;;;;;;;15.07;9.75;;;3.40;83.80;;;2.06;79.81;96724.03;3982175;34;20297;-83
2021/12/31 09:12:04;;;;;;;15.60;9.98;;;3.40;83.80;;;2.06;79.42;96721.31;4002990;34;20287;-83
2021/12/31 09:14:31;;;;;;;16.83;10.02;;;3.40;83.80;;;2.06;79.58;96721.31;3957874;34;20281;-83
2021/12/31 09:16:58;;;;;;;17.08;9.93;;;3.40;83.80;;;2.05;79.56;96725.06;3981167;34;20292;-83
2021/12/31 09:19:24;;;;;;;17.70;9.98;;;3.40;83.80;;;2.06;79.56;96721.31;3960567;34;20009;-83
2021/12/31 09:21:50;;;;;;;17.30;9.23;;;3.40;83.80;;;2.05;79.82;96719.66;3960864;34;20141;-83
2021/12/31 09:24:17;;;;;;;15.65;8.95;;;3.40;83.80;;;2.07;79.67;96723.00;3980752;34;20338;-83
2021/12/31 09:26:46;;;;;;;15.93;8.80;;;3.40;83.80;;;2.05;79.58;96714.25;3981518;34;20201;-83
2021/12/31 09:29:16;;;;;;;13.15;8.80;;;3.40;83.80;;;2.06;79.73;96715.94;4017855;34;20009;-83
2021/12/31 09:31:43;;;;;;;15.32;8.55;;;3.40;83.80;;;2.06;79.82;96713.22;4026419;34;20326;-83
2021/12/31 09:34:09;;;;;;;11.93;7.78;;;3.40;83.80;;;2.08;79.52;96715.72;3986195;34;19998;-83
2021/12/31 09:36:35;;;;;;;16.52;9.18;;;3.40;83.70;;;2.06;79.62;96715.94;3983747;34;20013;-83
2021/12/31 09:39:02;;;;;;;15.00;8.35;;;3.40;83.80;;;2.08;79.76;96723.81;3962558;34;20283;-83
2021/12/31 09:41:28;;;;;;;13.02;8.00;;;3.40;83.80;;;2.08;79.44;96723.81;3983514;34;19993;-83
2021/12/31 09:43:54;;;;;;;15.00;7.70;;;3.40;83.80;;;2.07;79.26;96720.28;3996394;34;20316;-83
2021/12/31 09:46:22;;;;;;;13.55;7.25;;;3.40;83.80;;;2.07;79.42;96714.91;3967438;34;20580;-83
2021/12/31 09:48:49;;;;;;;12.20;7.70;;;3.40;83.80;;;2.09;79.25;96720.94;4010777;34;20306;-84
2021/12/31 09:51:15;;;;;;;13.48;8.02;;;3.40;83.80;;;2.07;79.68;96714.91;3987255;34;20292;-84
2021/12/31 09:53:42;;;;;;;12.52;7.88;;;3.40;83.70;;;2.08;79.47;96707.59;4011287;34;20009;-84
2021/12/31 09:56:09;;;;;;;13.35;7.78;;;3.40;83.80;;;2.06;79.87;96710.53;3988832;34;20302;-83
2021/12/31 09:58:36;;;;;;;10.65;6.68;;;3.40;83.80;;;2.08;80.03;96704.91;3989794;34;20303;-84
2021/12/31 10:01:03;;;;;;;13.00;7.50;;;3.40;83.70;;;2.08;79.85;96703.06;4010859;34;20300;-83
2021/12/31 10:03:31;;;;;;;11.90;7.75;;;3.40;83.80;;;2.08;79.75;96705.75;3966659;34;20143;-84
2021/12/31 10:06:00;;;;;;;11.70;7.03;;;3.40;83.80;;;2.09;79.44;96699.31;3984381;34;20319;-84
2021/12/31 10:08:33;;;;;;;13.15;8.02;;;3.40;83.70;;;2.08;79.75;96696.81;3965963;34;20009;-83
2021/12/31 10:11:25;;;;;;;12.30;7.82;;;3.40;83.70;;;2.09;79.71;96695.78;3990573;34;20530;-83
2021/12/31 10:13:59;;;;;;;13.38;7.45;;;3.40;83.80;;;2.09;79.59;96693.91;4011480;34;20009;-84
2021/12/31 10:16:39;;;;;;;11.55;7.43;;;3.40;83.80;;;2.09;79.64;96698.47;3989841;34;20321;-84
2021/12/31 10:19:19;;;;;;;10.80;6.32;;;3.40;83.80;;;2.09;79.34;96699.31;3993523;34;20300;-83
2021/12/31 10:21:50;;;;;;;10.50;6.60;;;3.40;83.80;;;2.09;79.86;96701.19;3970587;34;20370;-83
2021/12/31 10:24:36;;;;;;;10.35;6.13;;;3.40;83.80;;;2.09;79.47;96696.63;3949784;34;20293;-84
2021/12/31 10:27:20;;;;;;;10.18;6.80;;;3.40;83.80;;;2.09;79.75;96704.72;3970493;34;20013;-83
2021/12/31 10:30:00;;;;;;;9.23;6.22;;;3.40;83.80;;;2.09;79.71;96702.03;3952079;34;20084;-84
2021/12/31 10:32:32;;;;;;;10.80;6.13;;;3.40;83.80;;;2.09;79.51;96698.47;3950696;34;20009;-84
2021/12/31 10:35:13;;;;;;;11.48;6.85;;;3.40;83.80;;;2.09;79.52;96696.63;3989441;34;20303;-83
2021/12/31 10:37:44;;;;;;;9.23;5.78;;;3.40;83.80;;;2.10;79.89;96695.59;3969552;34;20314;-83
2021/12/31 10:40:11;;;;;;;10.27;5.97;;;3.40;83.80;;;2.10;79.52;96695.59;3990990;34;20351;-84